Time;durP1;ratioP1;P1;durP2;ratioP2;P2;SDS_P1;SDS_P2;PMS_P1;PMS_P2;Temp;Humidity;BMP_temperature;BMP_pressure;BME280_temperature;BME280_humidity;BME280_pressure;Samples;Min_cycle;Max_cycle;Signal;HPM_P1;HPM_P2
2024/02/06 00:00:44;;;;;;;;;14.75;11.75;;;;;5.45;97.31;99176.31;114539;242;39831;-55
2024/02/06 00:03:38;;;;;;;;;9.00;7.00;;;;;5.55;97.31;99176.73;114477;239;161424;-51
2024/02/06 00:06:12;;;;;;;;;7.00;6.00;;;;;5.62;97.40;99178.51;114520;242;40009;-50
2024/02/06 00:08:46;;;;;;;;;6.00;5.00;;;;;5.69;97.47;99173.85;114564;242;39592;-54
2024/02/06 00:11:19;;;;;;;;;12.00;8.00;;;;;5.78;97.70;99173.96;114425;239;160971;-55
2024/02/06 00:13:53;;;;;;;;;9.00;7.00;;;;;5.82;97.90;99168.25;114590;242;40152;-51
2024/02/06 00:16:27;;;;;;;;;6.00;4.75;;;;;5.92;98.06;99157.75;114428;239;160912;-51
2024/02/06 00:19:01;;;;;;;;;6.67;5.00;;;;;6.01;98.14;99150.22;114577;242;39580;-51
2024/02/06 00:21:35;;;;;;;;;7.00;5.00;;;;;6.08;98.27;99154.86;114457;239;160933;-51
2024/02/06 00:24:09;;;;;;;;;3.25;3.00;;;;;6.17;98.64;99156.95;114574;241;40968;-54
2024/02/06 00:26:43;;;;;;;;;6.00;4.33;;;;;6.26;98.76;99157.46;114601;242;39954;-54
2024/02/06 00:29:16;;;;;;;;;7.00;5.00;;;;;6.33;99.23;99168.48;114439;239;160833;-52
2024/02/06 00:31:50;;;;;;;;;6.00;4.00;;;;;6.43;99.46;99165.93;114613;242;39336;-52
2024/02/06 00:34:23;;;;;;;;;8.33;6.33;;;;;6.49;99.45;99165.15;114499;239;161238;-55
2024/02/06 00:36:57;;;;;;;;;9.00;7.00;;;;;6.55;99.53;99161.61;114562;241;39751;-54
2024/02/06 00:39:31;;;;;;;;;8.00;6.00;;;;;6.62;99.64;99163.30;114624;242;39467;-56
2024/02/06 00:42:06;;;;;;;;;6.50;5.00;;;;;6.67;99.80;99148.33;114560;241;39286;-56
2024/02/06 00:44:41;;;;;;;;;11.50;8.25;;;;;6.71;99.93;99142.61;114590;241;39273;-50
2024/02/06 00:47:16;;;;;;;;;9.33;7.00;;;;;6.73;99.93;99139.25;114437;239;162027;-51
2024/02/06 00:49:50;;;;;;;;;8.00;6.00;;;;;6.78;100.00;99138.09;114597;242;40393;-55
2024/02/06 00:52:24;;;;;;;;;7.75;6.50;;;;;6.81;100.00;99142.52;114431;238;161334;-55
2024/02/06 00:54:58;;;;;;;;;6.00;5.00;;;;;6.84;100.00;99146.64;114569;241;39198;-54
2024/02/06 00:57:32;;;;;;;;;10.50;8.00;;;;;6.87;100.00;99147.35;114498;241;42887;-55
2024/02/06 01:00:07;;;;;;;;;12.00;8.00;;;;;6.90;100.00;99149.24;114549;242;39658;-51
2024/02/06 01:02:41;;;;;;;;;9.00;6.75;;;;;6.92;100.00;99148.55;114602;242;40008;-51
2024/02/06 01:05:14;;;;;;;;;12.00;7.00;;;;;6.92;100.00;99144.96;114477;238;161130;-51
2024/02/06 01:07:48;;;;;;;;;10.00;7.00;;;;;6.95;100.00;99141.80;114619;241;40529;-51
2024/02/06 01:10:22;;;;;;;;;9.00;7.00;;;;;6.97;100.00;99140.58;114475;239;161108;-55
2024/02/06 01:12:56;;;;;;;;;8.75;7.00;;;;;6.97;100.00;99141.10;114559;241;39692;-55
2024/02/06 01:15:29;;;;;;;;;12.25;9.00;;;;;7.01;100.00;99143.83;114605;242;39807;-54
2024/02/06 01:18:03;;;;;;;;;12.00;8.00;;;;;7.02;100.00;99137.09;114702;240;39683;-51
2024/02/06 01:20:36;;;;;;;;;11.00;8.00;;;;;7.07;100.00;99142.16;114624;240;41806;-51
2024/02/06 01:23:10;;;;;;;;;17.67;13.00;;;;;7.11;100.00;99140.25;114396;240;160974;-54
2024/02/06 01:25:44;;;;;;;;;16.00;10.00;;;;;7.12;100.00;99138.23;114602;241;40121;-53
2024/02/06 01:28:17;;;;;;;;;12.33;9.00;;;;;7.13;100.00;99139.64;114475;239;161699;-51
2024/02/06 01:30:51;;;;;;;;;17.00;13.00;;;;;7.13;100.00;99135.77;114559;241;40615;-52
2024/02/06 01:33:25;;;;;;;;;17.00;12.00;;;;;7.11;100.00;99131.40;114620;242;40400;-54
2024/02/06 01:35:59;;;;;;;;;13.00;9.00;;;;;7.12;100.00;99132.90;114424;239;161264;-55
2024/02/06 01:38:33;;;;;;;;;7.00;6.00;;;;;7.11;100.00;99134.84;114586;242;39987;-51
2024/02/06 01:41:07;;;;;;;;;11.25;8.75;;;;;7.13;100.00;99133.08;114437;241;161304;-52
2024/02/06 01:43:41;;;;;;;;;11.00;9.00;;;;;7.15;100.00;99131.96;114573;242;39890;-54
2024/02/06 01:46:15;;;;;;;;;10.00;7.00;;;;;7.13;100.00;99135.67;114452;239;161971;-54
2024/02/06 01:48:49;;;;;;;;;12.50;9.00;;;;;7.14;100.00;99133.04;114595;241;40327;-55
2024/02/06 01:51:25;;;;;;;;;6.50;5.25;;;;;7.14;100.00;99134.29;114555;242;40779;-55
2024/02/06 01:53:59;;;;;;;;;7.00;5.00;;;;;7.16;100.00;99131.02;114430;239;160829;-54
2024/02/06 01:56:34;;;;;;;;;7.67;5.67;;;;;7.15;100.00;99132.14;114592;242;39151;-54
2024/02/06 01:59:09;;;;;;;;;7.50;6.00;;;;;7.19;100.00;99132.11;114461;239;161871;-54
2024/02/06 02:01:43;;;;;;;;;7.00;5.00;;;;;7.22;100.00;99122.58;114581;242;39797;-54
2024/02/06 02:04:17;;;;;;;;;6.75;5.25;;;;;7.24;100.00;99129.98;114472;239;161380;-52
2024/02/06 02:06:52;;;;;;;;;8.00;5.75;;;;;7.21;100.00;99130.47;114572;241;39931;-51
2024/02/06 02:09:26;;;;;;;;;9.00;7.00;;;;;7.20;99.99;99133.48;114659;242;41242;-54
2024/02/06 02:12:00;;;;;;;;;8.75;7.00;;;;;7.21;99.98;99133.16;114439;239;161814;-53
2024/02/06 02:14:34;;;;;;;;;4.75;3.25;;;;;7.21;99.97;99136.55;114636;242;40324;-52
2024/02/06 02:17:08;;;;;;;;;6.00;5.00;;;;;7.22;100.00;99131.31;114431;239;160765;-51
2024/02/06 02:19:42;;;;;;;;;10.00;7.00;;;;;7.23;100.00;99132.02;114614;242;39949;-55
2024/02/06 02:22:16;;;;;;;;;7.00;5.00;;;;;7.21;100.00;99121.41;114460;239;161428;-55
2024/02/06 02:24:51;;;;;;;;;7.00;5.00;;;;;7.22;100.00;99121.76;114565;242;39533;-54
2024/02/06 02:27:25;;;;;;;;;7.75;5.00;;;;;7.24;99.99;99113.24;114594;242;41407;-54
2024/02/06 02:30:00;;;;;;;;;5.50;5.00;;;;;7.26;99.87;99114.21;114446;239;160594;-55
2024/02/06 02:32:34;;;;;;;;;7.00;5.50;;;;;7.27;99.84;99117.56;114598;242;39761;-55
2024/02/06 02:35:12;;;;;;;;;3.25;2.25;;;;;7.26;99.78;99114.99;114473;239;161085;-54
2024/02/06 02:37:47;;;;;;;;;5.67;3.67;;;;;7.24;99.78;99109.61;114176;242;470504;-54
2024/02/06 02:40:22;;;;;;;;;5.00;3.00;;;;;7.25;99.78;99114.95;114456;239;161168;-51
2024/02/06 02:42:56;;;;;;;;;3.25;3.00;;;;;7.24;99.78;99114.70;114640;242;39224;-51
2024/02/06 02:45:30;;;;;;;;;4.00;4.00;;;;;7.25;99.56;99122.05;114731;242;39409;-55
2024/02/06 02:48:05;;;;;;;;;6.00;4.25;;;;;7.26;99.39;99122.72;115153;242;39720;-55
2024/02/06 02:50:38;;;;;;;;;5.00;4.00;;;;;7.29;99.47;99109.73;114833;242;40963;-55
2024/02/06 02:53:12;;;;;;;;;4.25;3.00;;;;;7.30;99.27;99112.50;114543;239;161245;-55
2024/02/06 02:55:46;;;;;;;;;4.00;3.00;;;;;7.32;99.25;99107.95;114818;242;41546;-55
2024/02/06 02:58:20;;;;;;;;;3.00;2.00;;;;;7.31;99.11;99112.87;114648;239;161694;-51
2024/02/06 03:00:54;;;;;;;;;4.00;3.00;;;;;7.34;98.97;99116.31;114611;242;40024;-51
2024/02/06 03:03:28;;;;;;;;;2.00;2.00;;;;;7.36;98.81;99109.38;114842;242;40435;-55
2024/02/06 03:06:02;;;;;;;;;3.00;1.25;;;;;7.38;98.70;99115.76;114456;239;160613;-55
2024/02/06 03:08:37;;;;;;;;;3.00;2.00;;;;;7.37;98.64;99114.10;114857;242;39134;-54
2024/02/06 03:11:12;;;;;;;;;2.00;1.25;;;;;7.34;98.55;99114.79;114510;239;161012;-54
2024/02/06 03:13:46;;;;;;;;;4.00;3.00;;;;;7.35;98.50;99116.48;114793;242;39335;-54
2024/02/06 03:16:20;;;;;;;;;1.33;1.33;;;;;7.34;98.46;99109.25;114613;239;161406;-55
2024/02/06 03:18:54;;;;;;;;;3.00;2.00;;;;;7.36;98.36;99111.08;114697;242;39388;-52
2024/02/06 03:21:28;;;;;;;;;1.00;1.00;;;;;7.41;98.18;99113.21;114817;242;39232;-52
2024/02/06 03:24:02;;;;;;;;;2.00;2.00;;;;;7.42;98.04;99115.89;114488;239;160694;-54
2024/02/06 03:26:36;;;;;;;;;2.00;1.25;;;;;7.45;97.99;99115.58;114854;242;39366;-54
2024/02/06 03:29:10;;;;;;;;;2.00;1.00;;;;;7.46;97.92;99116.09;114532;239;160826;-51
2024/02/06 03:31:44;;;;;;;;;1.50;1.50;;;;;7.46;97.90;99114.75;114842;242;40548;-51
2024/02/06 03:34:18;;;;;;;;;2.25;2.00;;;;;7.48;97.80;99117.82;114623;240;161984;-52
2024/02/06 03:36:52;;;;;;;;;4.00;3.00;;;;;7.47;97.85;99122.08;114648;242;40667;-52
2024/02/06 03:39:26;;;;;;;;;1.00;1.00;;;;;7.49;97.68;99113.52;114815;242;40737;-55
2024/02/06 03:42:00;;;;;;;;;2.00;1.75;;;;;7.50;97.59;99117.87;114467;239;161689;-55
2024/02/06 03:44:34;;;;;;;;;1.00;1.00;;;;;7.53;97.43;99120.33;114850;242;40789;-52
2024/02/06 03:47:08;;;;;;;;;2.00;1.00;;;;;7.54;97.58;99117.80;114524;239;160813;-52
2024/02/06 03:49:42;;;;;;;;;3.75;2.00;;;;;7.56;97.45;99120.61;114796;242;39870;-51
2024/02/06 03:52:16;;;;;;;;;2.33;2.00;;;;;7.56;97.46;99119.91;114687;239;160941;-51
2024/02/06 03:54:50;;;;;;;;;2.00;1.75;;;;;7.56;97.49;99120.75;114673;242;39549;-51
2024/02/06 03:57:24;;;;;;;;;2.75;2.00;;;;;7.56;97.38;99124.42;114814;242;40511;-51
2024/02/06 03:59:58;;;;;;;;;1.25;1.00;;;;;7.55;97.23;99118.22;114447;242;160622;-51
2024/02/06 04:02:32;;;;;;;;;1.00;1.00;;;;;7.55;97.26;99115.08;114817;242;39626;-51
2024/02/06 04:05:07;;;;;;;;;2.00;2.00;;;;;7.54;97.30;99114.58;114537;239;160764;-55
2024/02/06 04:07:41;;;;;;;;;3.00;3.00;;;;;7.52;97.30;99116.47;114772;242;39467;-55
2024/02/06 04:10:16;;;;;;;;;2.25;2.00;;;;;7.56;97.18;99116.04;114636;239;161117;-51
2024/02/06 04:12:56;;;;;;;;;2.00;2.00;;;;;7.55;97.00;99113.46;114650;242;40983;-52
2024/02/06 04:15:30;;;;;;;;;2.00;2.00;;;;;7.55;97.06;99112.35;114776;242;39652;-52
2024/02/06 04:18:04;;;;;;;;;3.00;2.00;;;;;7.57;97.11;99113.73;114313;243;39632;-51
2024/02/06 04:20:38;;;;;;;;;3.00;2.75;;;;;7.55;97.10;99110.15;114559;243;39742;-50
2024/02/06 04:23:12;;;;;;;;;1.00;1.00;;;;;7.57;97.14;99109.55;114459;238;161069;-54
2024/02/06 04:25:46;;;;;;;;;2.25;2.00;;;;;7.56;97.26;99110.28;114579;242;40020;-54
2024/02/06 04:28:21;;;;;;;;;3.00;2.25;;;;;7.58;97.25;99115.13;114450;238;161143;-54
2024/02/06 04:30:55;;;;;;;;;3.00;2.00;;;;;7.57;97.26;99107.27;114571;242;40327;-54
2024/02/06 04:33:29;;;;;;;;;4.00;3.00;;;;;7.59;97.27;99108.11;114579;242;40945;-53
2024/02/06 04:36:03;;;;;;;;;4.00;3.00;;;;;7.58;97.20;99102.27;114379;238;160412;-54
2024/02/06 04:38:37;;;;;;;;;3.00;1.00;;;;;7.57;97.36;99102.35;114572;242;39746;-50
2024/02/06 04:41:10;;;;;;;;;5.50;4.00;;;;;7.61;97.25;99099.77;114411;241;160953;-50
2024/02/06 04:43:45;;;;;;;;;6.00;4.25;;;;;7.63;97.40;99101.75;114734;242;40153;-51
2024/02/06 04:46:19;;;;;;;;;3.25;3.00;;;;;7.66;97.32;99100.14;114168;240;161045;-51
2024/02/06 04:48:53;;;;;;;;;6.00;4.75;;;;;7.69;97.40;99102.48;114625;242;40311;-54
2024/02/06 04:51:27;;;;;;;;;4.00;3.00;;;;;7.69;97.44;99097.42;114754;242;38987;-54
2024/02/06 04:54:01;;;;;;;;;6.00;5.00;;;;;7.70;97.59;99102.48;114443;239;160824;-51
2024/02/06 04:56:35;;;;;;;;;4.50;4.00;;;;;7.70;97.67;99102.60;114778;242;39103;-52
2024/02/06 04:59:08;;;;;;;;;4.50;3.50;;;;;7.71;97.72;99090.48;114500;238;161318;-54
2024/02/06 05:01:42;;;;;;;;;4.50;3.00;;;;;7.75;97.70;99094.55;114567;242;40527;-54
2024/02/06 05:04:16;;;;;;;;;9.00;6.00;;;;;7.73;97.86;99096.16;114490;238;161441;-55
2024/02/06 05:06:50;;;;;;;;;3.00;3.00;;;;;7.72;97.99;99093.75;114559;242;40434;-55
2024/02/06 05:09:24;;;;;;;;;3.50;3.00;;;;;7.76;98.10;99093.19;114606;242;39934;-55
2024/02/06 05:12:01;;;;;;;;;8.00;6.00;;;;;7.74;97.99;99098.39;114442;242;160481;-55
2024/02/06 05:14:36;;;;;;;;;7.00;6.00;;;;;7.75;98.10;99091.16;114730;242;40997;-52
2024/02/06 05:17:10;;;;;;;;;6.75;5.00;;;;;7.79;98.13;99094.21;114515;240;161041;-51
2024/02/06 05:19:46;;;;;;;;;9.00;7.00;;;;;7.81;98.15;99091.95;114738;242;40008;-54
2024/02/06 05:22:20;;;;;;;;;5.00;4.00;;;;;7.80;98.23;99089.17;114707;240;160976;-54
2024/02/06 05:24:54;;;;;;;;;5.75;4.00;;;;;7.82;98.17;99089.73;114712;243;40404;-54
2024/02/06 05:27:30;;;;;;;;;8.00;6.00;;;;;7.81;98.27;99090.89;114577;243;39396;-52
2024/02/06 05:30:06;;;;;;;;;6.33;5.00;;;;;7.76;98.40;99085.36;114286;243;39765;-52
2024/02/06 05:32:40;;;;;;;;;5.00;4.00;;;;;7.74;98.46;99089.42;114555;243;39848;-52
2024/02/06 05:35:14;;;;;;;;;8.00;6.00;;;;;7.72;98.46;99085.86;114806;240;160817;-52
2024/02/06 05:37:49;;;;;;;;;8.00;6.00;;;;;7.71;98.76;99083.96;114641;243;41538;-52
2024/02/06 05:40:23;;;;;;;;;8.00;4.25;;;;;7.71;98.69;99079.73;114441;239;161376;-52
2024/02/06 05:42:57;;;;;;;;;11.00;8.00;;;;;7.69;98.93;99081.42;114523;242;39540;-55
2024/02/06 05:45:31;;;;;;;;;9.00;7.00;;;;;7.70;99.06;99082.01;114556;243;40076;-55
2024/02/06 05:48:05;;;;;;;;;8.33;6.00;;;;;7.69;99.22;99076.18;114906;241;39663;-52
2024/02/06 05:50:39;;;;;;;;;9.00;6.75;;;;;7.71;99.31;99079.77;114628;242;39689;-52
2024/02/06 05:53:14;;;;;;;;;10.75;8.00;;;;;7.68;99.32;99074.55;114458;238;160912;-55
2024/02/06 05:55:48;;;;;;;;;8.75;6.00;;;;;7.69;99.52;99078.57;114629;241;39755;-56
2024/02/06 05:58:24;;;;;;;;;9.00;8.00;;;;;7.69;99.35;99069.02;114475;239;160956;-53
2024/02/06 06:00:58;;;;;;;;;13.00;7.00;;;;;7.71;99.41;99070.19;114617;242;39829;-52
2024/02/06 06:03:31;;;;;;;;;11.67;8.00;;;;;7.69;99.52;99067.61;114702;242;39678;-54
2024/02/06 06:06:08;;;;;;;;;15.00;10.00;;;;;7.69;99.59;99058.88;114972;241;42670;-54
2024/02/06 06:08:42;;;;;;;;;12.25;9.25;;;;;7.67;99.91;99057.31;114688;242;39921;-51
2024/02/06 06:11:18;;;;;;;;;9.00;6.00;;;;;7.63;99.98;99061.23;114470;239;161761;-51
2024/02/06 06:13:52;;;;;;;;;12.00;9.00;;;;;7.61;99.95;99064.73;114588;242;41431;-51
2024/02/06 06:16:26;;;;;;;;;11.00;8.33;;;;;7.59;100.00;99070.08;114487;239;161417;-51
2024/02/06 06:19:00;;;;;;;;;7.00;5.00;;;;;7.59;100.00;99071.56;114604;242;41474;-50
2024/02/06 06:21:34;;;;;;;;;9.00;6.00;;;;;7.59;100.00;99072.21;114641;242;39256;-50
2024/02/06 06:24:09;;;;;;;;;11.00;8.00;;;;;7.61;100.00;99070.89;114564;241;39650;-50
2024/02/06 06:26:43;;;;;;;;;13.00;9.25;;;;;7.61;100.00;99081.73;114583;241;40651;-50
2024/02/06 06:29:16;;;;;;;;;6.00;5.00;;;;;7.58;100.00;99073.62;114417;240;161199;-54
2024/02/06 06:31:50;;;;;;;;;11.00;8.00;;;;;7.59;100.00;99077.14;114570;242;41352;-54
2024/02/06 06:34:24;;;;;;;;;14.00;11.00;;;;;7.58;100.00;99077.75;114469;239;161531;-50
2024/02/06 06:36:58;;;;;;;;;11.75;9.00;;;;;7.55;100.00;99079.40;114587;242;39614;-50
2024/02/06 06:39:32;;;;;;;;;12.75;8.75;;;;;7.53;100.00;99083.40;114637;242;39422;-51
2024/02/06 06:42:07;;;;;;;;;14.00;11.00;;;;;7.56;100.00;99092.92;114449;239;161040;-52
2024/02/06 06:44:41;;;;;;;;;11.67;9.00;;;;;7.59;100.00;99092.23;114637;242;39830;-54
2024/02/06 06:47:15;;;;;;;;;13.00;8.00;;;;;7.60;100.00;99085.45;114443;239;161338;-54
2024/02/06 06:49:49;;;;;;;;;14.75;10.75;;;;;7.63;100.00;99087.04;114813;242;40374;-52
2024/02/06 06:52:22;;;;;;;;;12.33;10.00;;;;;7.59;100.00;99089.91;114591;239;161639;-51
2024/02/06 06:54:57;;;;;;;;;14.00;10.00;;;;;7.61;100.00;99100.49;114836;242;41646;-55
2024/02/06 06:57:30;;;;;;;;;13.00;10.00;;;;;7.61;100.00;99099.30;114823;242;40213;-55
2024/02/06 07:00:05;;;;;;;;;10.00;8.00;;;;;7.65;100.00;99092.86;114450;239;161132;-51
2024/02/06 07:02:39;;;;;;;;;17.00;12.50;;;;;7.62;100.00;99092.98;114861;242;39692;-51
2024/02/06 07:05:14;;;;;;;;;11.25;9.00;;;;;7.58;100.00;99094.78;114500;239;161883;-51
2024/02/06 07:07:49;;;;;;;;;11.25;9.00;;;;;7.60;100.00;99102.55;114795;242;40052;-51
2024/02/06 07:10:23;;;;;;;;;13.75;10.25;;;;;7.61;100.00;99103.45;114621;239;161652;-54
2024/02/06 07:12:57;;;;;;;;;13.00;8.75;;;;;7.63;100.00;99101.42;114658;242;41952;-53
2024/02/06 07:15:31;;;;;;;;;16.00;11.00;;;;;7.62;100.00;99095.55;114837;242;39400;-55
2024/02/06 07:18:05;;;;;;;;;15.75;13.00;;;;;7.64;100.00;99088.48;114496;240;161040;-55
2024/02/06 07:20:39;;;;;;;;;8.00;6.25;;;;;7.64;100.00;99088.86;114877;242;39381;-56
2024/02/06 07:23:13;;;;;;;;;11.00;8.00;;;;;7.65;100.00;99086.26;114543;239;161128;-52
2024/02/06 07:25:47;;;;;;;;;11.00;9.00;;;;;7.67;100.00;99086.25;114790;242;39705;-52
2024/02/06 07:28:21;;;;;;;;;13.33;9.67;;;;;7.66;100.00;99085.26;114621;242;161356;-55
2024/02/06 07:30:57;;;;;;;;;7.50;5.50;;;;;7.65;100.00;99091.55;114658;242;39964;-55
2024/02/06 07:33:32;;;;;;;;;15.00;9.00;;;;;7.64;100.00;99100.71;114884;242;39166;-55
2024/02/06 07:36:07;;;;;;;;;13.00;10.00;;;;;7.66;100.00;99098.16;114495;242;161369;-52
2024/02/06 07:38:43;;;;;;;;;9.67;7.67;;;;;7.67;100.00;99095.56;114858;242;39396;-56
2024/02/06 07:41:18;;;;;;;;;11.00;9.00;;;;;7.66;100.00;99093.45;114540;239;161437;-51
2024/02/06 07:43:52;;;;;;;;;15.50;9.75;;;;;7.66;100.00;99090.69;114801;242;39139;-56
2024/02/06 07:46:28;;;;;;;;;9.00;7.00;;;;;7.68;100.00;99086.09;114670;239;161455;-55
2024/02/06 07:49:03;;;;;;;;;6.67;4.67;;;;;7.73;100.00;99087.92;114727;242;39061;-51
2024/02/06 07:51:40;;;;;;;;;9.00;7.00;;;;;7.72;100.00;99086.02;114774;242;38987;-51
2024/02/06 07:54:15;;;;;;;;;9.25;6.00;;;;;7.72;100.00;99091.27;114450;242;39156;-52
2024/02/06 07:56:51;;;;;;;;;9.00;7.00;;;;;7.76;99.95;99089.39;114861;242;39925;-51
2024/02/06 07:59:25;;;;;;;;;12.50;10.00;;;;;7.70;99.93;99093.08;114560;239;161237;-55
2024/02/06 08:01:59;;;;;;;;;8.00;6.00;;;;;7.71;99.88;99097.44;114844;242;39911;-56
2024/02/06 08:04:33;;;;;;;;;7.00;5.00;;;;;7.76;99.78;99093.44;114635;239;161068;-51
2024/02/06 08:07:09;;;;;;;;;12.00;8.25;;;;;7.77;99.81;99091.21;114708;242;41426;-51
2024/02/06 08:09:45;;;;;;;;;9.00;6.00;;;;;7.77;99.79;99087.61;115026;242;39407;-55
2024/02/06 08:12:27;;;;;;;;;11.00;8.00;;;;;7.77;99.63;99088.89;114552;242;39375;-53
2024/02/06 08:15:04;;;;;;;;;11.00;7.00;;;;;7.76;99.72;99101.21;114558;242;40636;-54
2024/02/06 08:17:42;;;;;;;;;13.00;9.00;;;;;7.76;99.71;99094.69;114404;240;161035;-54
2024/02/06 08:20:19;;;;;;;;;12.00;8.75;;;;;7.78;99.69;99090.70;114801;242;39592;-51
2024/02/06 08:22:53;;;;;;;;;9.00;6.00;;;;;7.78;99.71;99092.86;114573;239;161288;-51
2024/02/06 08:25:28;;;;;;;;;6.67;6.00;;;;;7.75;99.77;99093.72;114679;242;39622;-54
2024/02/06 08:28:02;;;;;;;;;8.00;6.25;;;;;7.74;99.70;99091.85;114616;239;161162;-55
2024/02/06 08:30:36;;;;;;;;;9.00;6.00;;;;;7.77;99.66;99091.58;114641;242;39587;-55
2024/02/06 08:33:10;;;;;;;;;7.25;6.00;;;;;7.82;99.54;99099.36;114852;242;39839;-54
2024/02/06 08:35:45;;;;;;;;;8.00;6.00;;;;;7.83;99.59;99091.13;114485;239;161283;-54
2024/02/06 08:38:19;;;;;;;;;8.33;6.00;;;;;7.80;99.65;99096.89;114837;242;39062;-51
2024/02/06 08:40:53;;;;;;;;;9.00;7.00;;;;;7.79;99.78;99099.85;114563;239;160959;-51
2024/02/06 08:43:27;;;;;;;;;6.75;5.75;;;;;7.82;99.78;99097.33;114739;242;39882;-52
2024/02/06 08:46:01;;;;;;;;;7.00;6.00;;;;;7.84;99.55;99100.28;114623;239;161141;-52
2024/02/06 08:48:35;;;;;;;;;10.25;8.00;;;;;7.84;99.56;99102.80;114617;242;39266;-56
2024/02/06 08:51:10;;;;;;;;;9.00;7.00;;;;;7.84;99.68;99097.63;114850;242;38893;-56
2024/02/06 08:53:44;;;;;;;;;11.50;8.75;;;;;7.85;99.50;99098.33;114440;239;161188;-53
2024/02/06 08:56:17;;;;;;;;;9.00;7.00;;;;;7.87;99.59;99099.86;114738;242;40974;-53
2024/02/06 08:58:51;;;;;;;;;10.00;6.00;;;;;7.90;99.46;99106.24;114548;239;162237;-52
2024/02/06 09:01:28;;;;;;;;;9.00;7.00;;;;;7.92;99.37;99104.18;114661;242;39187;-51
2024/02/06 09:04:04;;;;;;;;;9.00;7.00;;;;;7.92;99.47;99103.89;114603;239;161481;-55
2024/02/06 09:06:38;;;;;;;;;11.00;8.00;;;;;7.94;99.51;99099.85;114588;242;40283;-55
2024/02/06 09:09:12;;;;;;;;;8.50;5.75;;;;;7.97;99.38;99102.13;114759;242;39504;-54
2024/02/06 09:11:46;;;;;;;;;8.00;6.00;;;;;8.00;99.37;99107.09;114445;239;160916;-54
2024/02/06 09:14:20;;;;;;;;;9.00;6.67;;;;;7.98;99.45;99107.38;114676;242;41316;-52
2024/02/06 09:16:54;;;;;;;;;9.00;7.00;;;;;8.01;99.28;99106.52;114475;239;160947;-52
2024/02/06 09:19:28;;;;;;;;;7.25;4.75;;;;;8.05;99.28;99105.77;114647;242;39379;-56
2024/02/06 09:22:01;;;;;;;;;9.00;6.00;;;;;8.07;99.25;99102.42;114583;239;161150;-55
2024/02/06 09:24:35;;;;;;;;;6.67;6.00;;;;;8.08;99.18;99094.70;114579;242;39193;-52
2024/02/06 09:27:10;;;;;;;;;7.00;5.25;;;;;8.10;99.09;99094.89;114713;242;41072;-52
2024/02/06 09:29:44;;;;;;;;;9.00;7.00;;;;;8.10;99.10;99095.91;114495;239;162052;-52
2024/02/06 09:32:18;;;;;;;;;7.00;5.25;;;;;8.09;99.00;99093.13;114769;242;40842;-52
2024/02/06 09:34:52;;;;;;;;;11.00;7.00;;;;;8.07;99.13;99093.57;114784;241;161009;-51
2024/02/06 09:37:26;;;;;;;;;11.00;9.00;;;;;8.08;99.02;99100.02;114669;242;39468;-51
2024/02/06 09:40:00;;;;;;;;;9.00;7.50;;;;;8.10;98.92;99093.90;114419;239;161460;-51
2024/02/06 09:42:36;;;;;;;;;13.25;9.00;;;;;8.09;98.84;99098.09;114565;242;39390;-52
2024/02/06 09:45:11;;;;;;;;;9.00;7.33;;;;;8.12;98.59;99100.29;114638;242;39925;-54
2024/02/06 09:47:45;;;;;;;;;13.00;9.25;;;;;8.11;98.62;99097.83;114417;239;161064;-54
2024/02/06 09:50:20;;;;;;;;;9.00;6.00;;;;;8.11;98.45;99095.94;114747;242;40003;-51
2024/02/06 09:52:59;;;;;;;;;9.00;7.00;;;;;8.09;98.40;99091.84;114470;239;161776;-52
2024/02/06 09:55:33;;;;;;;;;8.00;6.67;;;;;8.13;98.16;99090.90;114606;242;39447;-56
2024/02/06 09:58:08;;;;;;;;;9.00;7.00;;;;;8.15;97.79;99090.85;114535;239;161390;-54
2024/02/06 10:00:44;;;;;;;;;9.00;7.00;;;;;8.17;97.67;99096.81;114563;242;40958;-52
2024/02/06 10:03:24;;;;;;;;;8.00;6.00;;;;;8.18;97.78;99096.04;114653;242;44775;-52
2024/02/06 10:06:03;;;;;;;;;7.00;6.00;;;;;8.24;97.73;99095.37;114476;239;160923;-52
2024/02/06 10:08:37;;;;;;;;;8.50;6.75;;;;;8.25;97.21;99090.77;114667;242;39554;-55
2024/02/06 10:11:12;;;;;;;;;7.25;6.00;;;;;8.29;96.97;99092.25;114485;239;162186;-56
2024/02/06 10:13:46;;;;;;;;;8.33;7.00;;;;;8.29;97.08;99096.80;114640;242;39567;-52
2024/02/06 10:16:20;;;;;;;;;7.00;5.50;;;;;8.32;97.17;99087.82;114502;239;161168;-53
2024/02/06 10:18:59;;;;;;;;;7.33;5.67;;;;;8.35;96.93;99085.14;114632;242;39566;-52
2024/02/06 10:21:33;;;;;;;;;14.00;11.00;;;;;8.37;96.76;99087.42;114660;242;40549;-52
2024/02/06 10:24:08;;;;;;;;;10.00;7.00;;;;;8.37;96.61;99090.98;114439;239;160797;-53
2024/02/06 10:26:42;;;;;;;;;10.25;8.50;;;;;8.38;96.34;99081.83;114602;242;40274;-53
2024/02/06 10:29:18;;;;;;;;;7.00;6.00;;;;;8.36;96.25;99074.63;114466;239;160463;-54
2024/02/06 10:31:58;;;;;;;;;9.00;8.00;;;;;8.32;96.20;99075.66;114604;242;39176;-54
2024/02/06 10:34:32;;;;;;;;;8.00;7.00;;;;;8.27;96.09;99076.71;114448;242;160922;-51
2024/02/06 10:37:06;;;;;;;;;6.33;5.00;;;;;8.24;96.10;99073.48;114287;242;598216;-51
2024/02/06 10:39:41;;;;;;;;;10.00;8.00;;;;;8.23;96.15;99077.45;114548;242;40143;-53
2024/02/06 10:42:16;;;;;;;;;12.00;10.00;;;;;8.25;95.91;99072.40;114917;242;39800;-53
2024/02/06 10:44:54;;;;;;;;;6.50;5.75;;;;;8.24;95.96;99069.92;114640;242;40033;-56
2024/02/06 10:47:29;;;;;;;;;8.00;6.75;;;;;8.26;95.93;99071.75;114400;239;161133;-56
2024/02/06 10:50:09;;;;;;;;;8.25;7.00;;;;;8.30;95.66;99064.77;114587;242;41323;-53
2024/02/06 10:52:44;;;;;;;;;6.25;5.25;;;;;8.28;95.82;99062.73;114571;239;163271;-53
2024/02/06 10:55:18;;;;;;;;;7.50;6.00;;;;;8.30;95.73;99058.90;114685;242;39477;-52
2024/02/06 10:57:57;;;;;;;;;8.50;7.00;;;;;8.33;95.81;99053.14;114709;239;161135;-52
2024/02/06 11:00:34;;;;;;;;;7.00;6.00;;;;;8.38;95.67;99057.64;114658;242;40127;-55
2024/02/06 11:03:10;;;;;;;;;9.67;8.67;;;;;8.40;95.60;99052.64;114832;242;39353;-54
2024/02/06 11:05:50;;;;;;;;;8.67;7.00;;;;;8.44;95.49;99059.52;114439;239;160958;-54
2024/02/06 11:08:27;;;;;;;;;9.00;7.00;;;;;8.45;95.27;99062.29;114839;242;41745;-51
2024/02/06 11:11:06;;;;;;;;;8.33;6.00;;;;;8.49;95.24;99062.41;114573;239;162113;-51
2024/02/06 11:13:46;;;;;;;;;9.25;7.50;;;;;8.49;94.92;99059.66;114785;242;39500;-51
2024/02/06 11:16:23;;;;;;;;;6.00;5.50;;;;;8.47;94.72;99054.00;114590;239;160554;-51
2024/02/06 11:19:09;;;;;;;;;12.00;9.00;;;;;8.48;94.42;99050.12;114653;242;39701;-51
2024/02/06 11:21:45;;;;;;;;;8.75;7.00;;;;;8.43;94.69;99055.73;114854;242;39170;-51
2024/02/06 11:24:22;;;;;;;;;12.00;9.00;;;;;8.40;94.44;99058.23;114364;242;40068;-56
2024/02/06 11:26:56;;;;;;;;;6.00;5.00;;;;;8.36;94.60;99062.04;114890;242;39857;-55
2024/02/06 11:29:30;;;;;;;;;13.00;7.25;;;;;8.32;94.50;99052.03;114532;238;161046;-53
2024/02/06 11:32:05;;;;;;;;;9.00;7.00;;;;;8.28;94.49;99055.13;114540;242;39583;-53
2024/02/06 11:34:52;;;;;;;;;9.75;7.75;;;;;8.29;94.49;99051.45;114426;241;161315;-51
2024/02/06 11:37:30;;;;;;;;;7.00;5.00;;;;;8.31;94.50;99055.88;114565;241;40231;-52
2024/02/06 11:40:15;;;;;;;;;8.67;6.67;;;;;8.34;94.44;99053.39;114463;242;161373;-52
2024/02/06 11:42:58;;;;;;;;;8.00;6.00;;;;;8.38;94.48;99052.85;114671;242;40146;-51
2024/02/06 11:45:33;;;;;;;;;10.25;8.00;;;;;8.41;94.43;99052.15;114891;242;39331;-55
2024/02/06 11:48:09;;;;;;;;;12.00;8.00;;;;;8.44;94.26;99047.52;114509;239;161470;-54
2024/02/06 11:50:46;;;;;;;;;7.50;5.00;;;;;8.44;94.29;99046.14;114852;242;39640;-54
2024/02/06 11:53:25;;;;;;;;;7.25;6.00;;;;;8.46;94.19;99041.50;114552;239;161013;-54
2024/02/06 11:56:02;;;;;;;;;10.00;7.00;;;;;8.48;94.01;99049.08;114669;242;41108;-54
2024/02/06 11:58:36;;;;;;;;;9.00;6.00;;;;;8.48;94.11;99050.31;114560;239;161155;-52
2024/02/06 12:01:11;;;;;;;;;10.00;9.00;;;;;8.51;94.11;99051.71;114651;242;41279;-52
2024/02/06 12:03:45;;;;;;;;;8.00;6.50;;;;;8.49;94.25;99047.13;114733;242;39979;-51
2024/02/06 12:06:25;;;;;;;;;8.00;7.00;;;;;8.52;94.19;99044.05;115030;242;39495;-51
2024/02/06 12:09:10;;;;;;;;;12.75;9.00;;;;;8.54;93.84;99042.02;114730;242;39116;-54